createdAt,value
2019-02-06T00:02:57.440Z,-0.94
2019-02-06T00:06:13.114Z,-0.95
2019-02-06T00:09:28.370Z,-1.10
2019-02-06T00:12:43.818Z,-1.18
2019-02-06T00:15:59.467Z,-1.14
2019-02-06T00:19:14.985Z,-1.17
2019-02-06T00:22:30.147Z,-1.18
2019-02-06T00:25:47.614Z,-1.16
2019-02-06T00:29:03.039Z,-1.17
2019-02-06T00:32:18.699Z,-1.16
2019-02-06T00:35:34.358Z,-1.39
2019-02-06T00:38:50.363Z,-1.32
2019-02-06T00:42:06.081Z,-1.41
2019-02-06T00:45:21.851Z,-1.46
2019-02-06T00:48:37.202Z,-1.45
2019-02-06T00:51:52.851Z,-1.49
2019-02-06T00:55:08.292Z,-1.46
2019-02-06T00:58:26.053Z,-1.47
2019-02-06T01:01:41.466Z,-1.50
2019-02-06T01:04:57.347Z,-1.51
2019-02-06T01:08:13.382Z,-1.54
2019-02-06T01:11:29.094Z,-1.58
2019-02-06T01:14:44.538Z,-1.64
2019-02-06T01:17:59.972Z,-1.61
2019-02-06T01:21:15.643Z,-1.64
2019-02-06T01:24:31.598Z,-1.68
2019-02-06T01:27:47.056Z,-1.69
2019-02-06T01:31:21.543Z,-1.71
2019-02-06T01:34:36.902Z,-1.72
2019-02-06T01:37:52.661Z,-1.84
2019-02-06T01:41:08.019Z,-1.86
2019-02-06T01:44:23.371Z,-1.86
2019-02-06T01:47:39.457Z,-1.88
2019-02-06T01:50:55.202Z,-1.88
2019-02-06T01:54:10.558Z,-1.86
2019-02-06T01:57:25.909Z,-1.84
2019-02-06T02:00:41.454Z,-1.88
2019-02-06T02:03:56.819Z,-1.91
2019-02-06T02:07:12.377Z,-1.97
2019-02-06T02:10:27.627Z,-1.95
2019-02-06T02:13:43.171Z,-1.96
2019-02-06T02:16:58.702Z,-2.04
2019-02-06T02:20:16.484Z,-2.13
2019-02-06T02:23:31.695Z,-2.25
2019-02-06T02:26:47.064Z,-2.25
2019-02-06T02:30:03.473Z,-2.14
2019-02-06T02:33:19.078Z,-2.11
2019-02-06T02:36:34.642Z,-2.13
2019-02-06T02:39:49.903Z,-2.16
2019-02-06T02:43:05.558Z,-2.24
2019-02-06T02:46:20.896Z,-2.21
2019-02-06T02:49:36.159Z,-2.17
2019-02-06T02:52:51.314Z,-2.20
2019-02-06T02:56:06.754Z,-2.23
2019-02-06T02:59:22.015Z,-2.21
2019-02-06T03:02:58.241Z,-2.16
2019-02-06T03:06:13.564Z,-2.23
2019-02-06T03:09:29.047Z,-2.28
2019-02-06T03:12:44.705Z,-2.33
2019-02-06T03:16:00.059Z,-2.33
2019-02-06T03:19:15.412Z,-2.41
2019-02-06T03:22:32.961Z,-2.64
2019-02-06T03:25:48.371Z,-2.66
2019-02-06T03:29:03.727Z,-2.59
2019-02-06T03:32:19.394Z,-2.52
2019-02-06T03:35:35.032Z,-2.48
2019-02-06T03:38:50.639Z,-2.48
2019-02-06T03:42:05.919Z,-2.45
2019-02-06T03:45:21.113Z,-2.45
2019-02-06T03:48:36.247Z,-2.46
2019-02-06T03:51:51.907Z,-2.49
2019-02-06T03:55:07.020Z,-2.64
2019-02-06T03:58:22.276Z,-2.84
2019-02-06T04:01:37.759Z,-2.93
2019-02-06T04:05:10.993Z,-2.94
2019-02-06T04:08:26.476Z,-2.81
2019-02-06T04:11:41.826Z,-2.83
2019-02-06T04:14:57.186Z,-2.75
2019-02-06T04:18:12.534Z,-2.73
2019-02-06T04:21:28.299Z,-2.77
2019-02-06T04:24:43.842Z,-2.73
2019-02-06T04:27:59.514Z,-2.73
2019-02-06T04:31:14.869Z,-2.77
2019-02-06T04:34:30.421Z,-2.78
2019-02-06T04:37:46.073Z,-2.85
2019-02-06T04:41:01.540Z,-2.96
2019-02-06T04:44:17.039Z,-2.89
2019-02-06T04:47:32.447Z,-2.88
2019-02-06T04:50:48.006Z,-2.87
2019-02-06T04:54:03.379Z,-2.83
2019-02-06T04:57:18.811Z,-2.79
2019-02-06T05:00:34.063Z,-2.81
2019-02-06T05:03:49.414Z,-2.90
2019-02-06T05:07:05.123Z,-2.93
2019-02-06T05:10:20.641Z,-2.92
2019-02-06T05:13:36.290Z,-2.94
2019-02-06T05:16:51.701Z,-3.01
2019-02-06T05:20:12.774Z,-2.96
2019-02-06T05:23:28.077Z,-2.91
2019-02-06T05:26:43.430Z,-2.97
2019-02-06T05:29:58.788Z,-2.94
2019-02-06T05:33:13.949Z,-3.06
2019-02-06T05:36:29.872Z,-3.22
2019-02-06T05:39:45.047Z,-3.27
2019-02-06T05:43:00.505Z,-3.17
2019-02-06T05:46:16.060Z,-3.08
2019-02-06T05:49:33.387Z,-3.13
2019-02-06T05:52:49.515Z,-3.28
2019-02-06T05:56:04.471Z,-3.20
2019-02-06T05:59:20.030Z,-3.11
2019-02-06T06:02:35.518Z,-3.10
2019-02-06T06:05:51.032Z,-3.19
2019-02-06T06:09:07.628Z,-3.20
2019-02-06T06:12:23.493Z,-3.21
2019-02-06T06:15:39.060Z,-3.41
2019-02-06T06:18:54.501Z,-3.33
2019-02-06T06:22:10.067Z,-3.21
2019-02-06T06:25:25.720Z,-3.23
2019-02-06T06:28:40.878Z,-3.37
2019-02-06T06:31:56.236Z,-3.38
2019-02-06T06:35:11.527Z,-3.33
2019-02-06T06:38:26.928Z,-3.34
2019-02-06T06:41:42.383Z,-3.25
2019-02-06T06:44:57.835Z,-3.20
2019-02-06T06:48:13.292Z,-3.23
2019-02-06T06:51:28.529Z,-3.18
2019-02-06T06:54:43.788Z,-3.15
2019-02-06T06:57:59.257Z,-3.10
2019-02-06T07:01:14.800Z,-3.06
2019-02-06T07:04:30.012Z,-3.03
2019-02-06T07:07:45.819Z,-3.12
2019-02-06T07:11:01.647Z,-3.19
2019-02-06T07:14:17.116Z,-3.31
2019-02-06T07:17:32.596Z,-3.26
2019-02-06T07:20:48.044Z,-3.19
2019-02-06T07:24:03.601Z,-3.08
2019-02-06T07:27:21.087Z,-2.96
2019-02-06T07:30:36.188Z,-2.84
2019-02-06T07:33:52.164Z,-2.79
2019-02-06T07:37:09.150Z,-2.70
2019-02-06T07:40:24.516Z,-2.64
2019-02-06T07:43:40.719Z,-2.73
2019-02-06T07:46:56.078Z,-2.79
2019-02-06T07:50:20.038Z,-2.75
2019-02-06T07:53:35.288Z,-2.76
2019-02-06T07:56:50.535Z,-2.82
2019-02-06T08:00:06.467Z,-2.65
2019-02-06T08:03:22.181Z,-2.46
2019-02-06T08:06:37.236Z,-2.30
2019-02-06T08:09:52.762Z,-2.24
2019-02-06T08:13:08.156Z,-2.09
2019-02-06T08:16:24.284Z,-2.02
2019-02-06T08:19:39.758Z,-1.88
2019-02-06T08:22:55.297Z,-1.72
2019-02-06T08:26:10.753Z,-1.60
2019-02-06T08:29:26.086Z,-1.44
2019-02-06T08:32:59.678Z,-1.27
2019-02-06T08:36:15.244Z,-1.23
2019-02-06T08:39:30.482Z,-1.29
2019-02-06T08:42:47.750Z,-1.11
2019-02-06T08:46:03.274Z,-1.03
2019-02-06T08:49:18.486Z,-0.78
2019-02-06T08:52:34.042Z,-0.56
2019-02-06T08:55:49.650Z,-0.50
2019-02-06T08:59:04.747Z,-0.35
2019-02-06T09:02:19.905Z,-0.22
2019-02-06T09:05:35.302Z,-0.06
2019-02-06T09:08:59.184Z,0.14
2019-02-06T09:12:08.923Z,0.29
2019-02-06T09:15:42.810Z,0.45
2019-02-06T09:18:58.153Z,0.56
2019-02-06T09:22:13.286Z,0.68
2019-02-06T09:25:28.023Z,0.78
2019-02-06T09:28:44.003Z,0.96
2019-02-06T09:31:59.587Z,1.09
2019-02-06T09:35:14.800Z,1.23
2019-02-06T09:38:30.566Z,1.46
2019-02-06T09:41:45.831Z,1.72
2019-02-06T09:45:01.203Z,1.88
2019-02-06T09:48:16.597Z,2.05
2019-02-06T09:51:31.988Z,2.19
2019-02-06T09:54:47.251Z,2.52
2019-02-06T09:58:02.800Z,2.78
2019-02-06T10:01:21.279Z,3.06
2019-02-06T10:04:35.748Z,3.48
2019-02-06T10:07:51.247Z,3.84
2019-02-06T10:11:06.665Z,3.91
2019-02-06T10:14:21.830Z,4.17
2019-02-06T10:17:37.801Z,4.50
2019-02-06T10:20:53.465Z,4.75
2019-02-06T10:24:08.943Z,4.91
2019-02-06T10:27:24.558Z,5.07
2019-02-06T10:30:42.531Z,5.42
2019-02-06T10:33:58.184Z,5.77
2019-02-06T10:37:14.095Z,5.87
2019-02-06T10:40:30.356Z,5.69
2019-02-06T10:43:45.628Z,5.99
2019-02-06T10:47:00.874Z,6.47
2019-02-06T10:50:18.624Z,7.02
2019-02-06T10:53:33.686Z,7.50
2019-02-06T10:56:49.279Z,7.72
2019-02-06T11:00:09.389Z,7.84
2019-02-06T11:03:25.587Z,8.21
2019-02-06T11:06:40.869Z,8.59
2019-02-06T11:09:56.121Z,8.76
2019-02-06T11:13:10.925Z,8.89
2019-02-06T11:16:26.306Z,9.06
2019-02-06T11:19:43.107Z,9.25
2019-02-06T11:22:58.749Z,9.24
2019-02-06T11:26:14.111Z,9.44
2019-02-06T11:29:29.563Z,9.68
2019-02-06T11:32:44.682Z,9.90
2019-02-06T11:36:00.166Z,10.18
2019-02-06T11:39:21.724Z,10.41
2019-02-06T11:42:37.324Z,10.18
2019-02-06T11:45:52.788Z,9.88
2019-02-06T11:49:08.008Z,9.71
2019-02-06T11:52:23.394Z,10.00
2019-02-06T11:55:39.088Z,10.32
2019-02-06T11:58:54.520Z,10.40
2019-02-06T12:02:10.181Z,10.31
2019-02-06T12:05:25.362Z,10.32
2019-02-06T12:08:41.497Z,10.29
2019-02-06T12:11:57.114Z,10.36
2019-02-06T12:15:16.532Z,10.35
2019-02-06T12:18:32.183Z,10.43
2019-02-06T12:21:47.590Z,10.46
2019-02-06T12:25:03.164Z,10.60
2019-02-06T12:28:18.655Z,10.53
2019-02-06T12:31:34.256Z,10.45
2019-02-06T12:34:49.678Z,10.03
2019-02-06T12:38:05.842Z,10.01
2019-02-06T12:41:20.915Z,10.14
2019-02-06T12:44:35.715Z,10.20
2019-02-06T12:47:51.033Z,10.22
2019-02-06T12:51:06.597Z,10.27
2019-02-06T12:54:22.151Z,10.18
2019-02-06T12:57:37.618Z,9.99
2019-02-06T13:00:53.059Z,9.94
2019-02-06T13:04:08.517Z,10.05
2019-02-06T13:07:23.672Z,10.10
2019-02-06T13:10:41.082Z,10.15
2019-02-06T13:13:56.442Z,10.37
2019-02-06T13:17:11.778Z,10.17
2019-02-06T13:20:27.260Z,9.93
2019-02-06T13:23:43.461Z,9.92
2019-02-06T13:26:58.671Z,9.56
2019-02-06T13:30:20.072Z,9.14
2019-02-06T13:33:36.115Z,9.03
2019-02-06T13:36:51.468Z,9.18
2019-02-06T13:40:09.155Z,9.41
2019-02-06T13:43:24.501Z,9.57
2019-02-06T13:46:40.101Z,9.82
2019-02-06T13:49:55.439Z,10.30
2019-02-06T13:53:11.391Z,10.42
2019-02-06T13:56:26.450Z,10.40
2019-02-06T13:59:41.721Z,10.60
2019-02-06T14:02:56.958Z,10.65
2019-02-06T14:06:12.496Z,10.79
2019-02-06T14:09:28.073Z,10.90
2019-02-06T14:12:43.821Z,10.83
2019-02-06T14:15:59.389Z,10.78
2019-02-06T14:19:14.462Z,10.41
2019-02-06T14:22:29.897Z,10.44
2019-02-06T14:26:28.434Z,10.34
2019-02-06T14:30:19.015Z,10.28
2019-02-06T14:33:59.622Z,10.15
2019-02-06T14:37:41.405Z,10.05
2019-02-06T14:41:28.740Z,9.90
2019-02-06T14:45:10.372Z,9.69
2019-02-06T14:49:08.009Z,9.57
2019-02-06T14:52:43.294Z,9.27
2019-02-06T14:56:15.566Z,8.54
2019-02-06T14:59:44.828Z,8.13
2019-02-06T15:03:41.222Z,7.84
2019-02-06T15:07:34.713Z,7.48
2019-02-06T15:11:25.868Z,7.09
2019-02-06T15:15:11.246Z,6.91
2019-02-06T15:18:54.288Z,6.65
2019-02-06T15:22:41.053Z,6.56
2019-02-06T15:26:30.199Z,6.43
2019-02-06T15:30:18.840Z,6.36
2019-02-06T15:33:43.495Z,6.26
2019-02-06T15:37:23.695Z,6.09
2019-02-06T15:41:31.901Z,6.03
2019-02-06T15:45:23.787Z,6.05
2019-02-06T15:49:09.521Z,6.05
2019-02-06T15:52:53.627Z,5.82
2019-02-06T15:56:39.214Z,5.54
2019-02-06T16:00:21.728Z,5.39
2019-02-06T16:04:34.812Z,5.27
2019-02-06T16:08:18.172Z,5.12
2019-02-06T16:11:42.890Z,4.92
2019-02-06T16:15:19.861Z,4.75
2019-02-06T16:19:03.402Z,4.28
2019-02-06T16:23:19.024Z,4.09
2019-02-06T16:27:14.691Z,3.94
2019-02-06T16:31:09.750Z,3.62
2019-02-06T16:35:06.960Z,3.32
2019-02-06T16:38:54.752Z,3.19
2019-02-06T16:42:23.927Z,3.08
2019-02-06T16:46:31.763Z,2.83
2019-02-06T16:50:10.253Z,2.77
2019-02-06T16:53:53.230Z,2.73
2019-02-06T16:57:55.071Z,2.44
2019-02-06T17:01:53.682Z,2.24
2019-02-06T17:05:40.151Z,2.06
2019-02-06T17:09:16.860Z,1.96
2019-02-06T17:12:44.002Z,1.82
2019-02-06T17:16:25.253Z,1.86
2019-02-06T17:20:14.313Z,1.73
2019-02-06T17:24:00.374Z,1.59
2019-02-06T17:28:11.548Z,1.50
2019-02-06T17:32:02.152Z,1.40
2019-02-06T17:35:44.068Z,1.32
2019-02-06T17:39:55.619Z,1.27
2019-02-06T17:43:27.083Z,1.18
2019-02-06T17:47:11.434Z,1.14
2019-02-06T17:50:38.763Z,1.02
2019-02-06T17:54:15.653Z,0.93
2019-02-06T17:57:31.581Z,0.77
2019-02-06T18:01:14.755Z,0.80
2019-02-06T18:04:41.882Z,0.78
2019-02-06T18:07:57.447Z,0.77
2019-02-06T18:11:12.992Z,0.72
2019-02-06T18:14:28.572Z,0.56
2019-02-06T18:17:44.229Z,0.60
2019-02-06T18:20:59.577Z,0.58
2019-02-06T18:24:14.734Z,0.56
2019-02-06T18:27:30.033Z,0.54
2019-02-06T18:30:45.722Z,0.54
2019-02-06T18:34:02.238Z,0.51
2019-02-06T18:37:17.870Z,0.44
2019-02-06T18:40:33.216Z,0.31
2019-02-06T18:43:48.379Z,0.13
2019-02-06T18:47:04.445Z,0.04
2019-02-06T18:50:19.915Z,0.11
2019-02-06T18:53:35.658Z,0.12
2019-02-06T18:57:27.387Z,-0.06
2019-02-06T19:01:30.338Z,0.02
2019-02-06T19:04:45.738Z,-0.03
2019-02-06T19:08:01.087Z,-0.06
2019-02-06T19:11:16.228Z,-0.02
2019-02-06T19:14:31.599Z,-0.03
2019-02-06T19:17:46.736Z,-0.07
2019-02-06T19:21:02.286Z,-0.30
2019-02-06T19:24:17.965Z,-0.30
2019-02-06T19:27:33.924Z,-0.31
2019-02-06T19:30:49.273Z,-0.33
2019-02-06T19:34:04.390Z,-0.43
2019-02-06T19:37:20.181Z,-0.40
2019-02-06T19:40:36.218Z,-0.37
2019-02-06T19:43:51.844Z,-0.32
2019-02-06T19:47:06.982Z,-0.38
2019-02-06T19:50:23.368Z,-0.37
2019-02-06T19:53:38.599Z,-0.38
2019-02-06T19:56:54.287Z,-0.44
2019-02-06T20:00:12.645Z,-0.45
2019-02-06T20:03:27.703Z,-0.52
2019-02-06T20:06:43.174Z,-0.66
2019-02-06T20:09:58.431Z,-0.81
2019-02-06T20:13:14.729Z,-0.82
2019-02-06T20:16:29.955Z,-0.83
2019-02-06T20:19:45.299Z,-0.95
2019-02-06T20:23:00.450Z,-0.89
2019-02-06T20:26:15.800Z,-0.74
2019-02-06T20:29:31.052Z,-0.77
2019-02-06T20:32:46.403Z,-0.77
2019-02-06T20:36:01.756Z,-0.83
2019-02-06T20:39:17.311Z,-0.94
2019-02-06T20:42:32.672Z,-0.95
2019-02-06T20:45:48.120Z,-0.95
2019-02-06T20:49:03.267Z,-0.93
2019-02-06T20:52:18.763Z,-1.11
2019-02-06T20:55:33.864Z,-1.18
2019-02-06T20:58:49.125Z,-1.10
2019-02-06T21:02:04.568Z,-1.13
2019-02-06T21:05:20.238Z,-1.13
2019-02-06T21:08:35.490Z,-1.13
2019-02-06T21:11:50.952Z,-1.06
2019-02-06T21:15:06.906Z,-1.08
2019-02-06T21:18:22.763Z,-1.07
2019-02-06T21:21:38.142Z,-1.12
2019-02-06T21:24:53.575Z,-1.11
2019-02-06T21:28:09.034Z,-1.23
2019-02-06T21:31:24.490Z,-1.21
2019-02-06T21:34:39.756Z,-1.23
2019-02-06T21:37:55.301Z,-1.14
2019-02-06T21:41:10.550Z,-1.12
2019-02-06T21:44:26.108Z,-1.08
2019-02-06T21:47:41.255Z,-1.12
2019-02-06T21:50:57.586Z,-1.34
2019-02-06T21:54:12.688Z,-1.39
2019-02-06T21:57:28.030Z,-1.30
2019-02-06T22:00:43.264Z,-1.23
2019-02-06T22:03:58.978Z,-1.22
2019-02-06T22:07:14.398Z,-1.20
2019-02-06T22:10:29.646Z,-1.19
2019-02-06T22:13:54.636Z,-1.21
2019-02-06T22:17:02.302Z,-1.37
2019-02-06T22:20:17.954Z,-1.27
2019-02-06T22:23:33.534Z,-1.19
2019-02-06T22:26:48.866Z,-1.20
2019-02-06T22:30:04.819Z,-1.18
2019-02-06T22:33:21.317Z,-1.16
2019-02-06T22:36:37.071Z,-1.16
2019-02-06T22:39:52.328Z,-1.20
2019-02-06T22:43:07.676Z,-1.20
2019-02-06T22:46:22.818Z,-1.20
2019-02-06T22:49:38.382Z,-1.20
2019-02-06T22:52:53.729Z,-1.20
2019-02-06T22:56:08.968Z,-1.21
2019-02-06T22:59:24.341Z,-1.19
2019-02-06T23:02:39.467Z,-1.16
2019-02-06T23:05:55.149Z,-1.20
2019-02-06T23:09:10.694Z,-1.25
2019-02-06T23:12:27.420Z,-1.20
2019-02-06T23:15:42.800Z,-1.17
2019-02-06T23:18:58.096Z,-1.15
2019-02-06T23:22:13.445Z,-1.17
2019-02-06T23:25:29.006Z,-1.12
2019-02-06T23:28:44.265Z,-1.16
2019-02-06T23:31:59.612Z,-1.31
2019-02-06T23:35:15.259Z,-1.22
2019-02-06T23:38:30.732Z,-1.27
2019-02-06T23:41:45.971Z,-1.26
2019-02-06T23:45:01.640Z,-1.34
2019-02-06T23:48:17.089Z,-1.27
2019-02-06T23:51:32.546Z,-1.15
2019-02-06T23:54:48.000Z,-1.19
2019-02-06T23:58:03.156Z,-1.10
